Highclere, United Kingdom
Current Conditions -  °F | °C
As of 8:20 AM on Tuesday 21 Oct 2014 (Local Time) from EGVP Reporting Station
Moderate Rain Moderate Rain  
Wind Chill: 55°   Ceiling: 2200
Heat Index: 55°   Visibility: 3mi
Dew Point: 50°   Wind: 18mph
Humidity: 82%   Direction: 270°W
Pressure: 29.62"   Gusts: 33mph
Location:  51.34°N, 1.38°W
Report Text: EGVP 210720Z 27016G29KT 5000 RA FEW010 BKN022 BKN032 13/10 Q1003 WHT BECMG 9999 NSW FEW022 BLU
Loading
Personal Weather Stations






























Interactive Weather Map
Tropical Storm Tracking
New forecast layout! Learn more

10-Day Weather Forecast

Advertisements
Track Severe Weather on mobile